Time;durP1;ratioP1;P1;durP2;ratioP2;P2;SDS_P1;SDS_P2;PMS_P1;PMS_P2;Temp;Humidity;BMP_temperature;BMP_pressure;BME280_temperature;BME280_humidity;BME280_pressure;Samples;Min_cycle;Max_cycle;Signal;HPM_P1;HPM_P2
2022/05/16 00:02:27;;;;;;;4.60;2.30;;;;;;;15.71;64.12;100601.72;5587283;31;32761;-66
2022/05/16 00:05:30;;;;;;;6.65;2.10;;;;;;;15.68;65.60;100603.94;5589268;31;33900;-66
2022/05/16 00:08:32;;;;;;;4.82;2.28;;;;;;;15.60;66.64;100607.59;5589905;31;32972;-67
2022/05/16 00:11:35;;;;;;;8.27;2.35;;;;;;;15.51;67.08;100598.88;5590843;31;34576;-66
2022/05/16 00:14:39;;;;;;;3.67;2.47;;;;;;;15.46;68.73;100606.63;5590649;31;34139;-67
2022/05/16 00:17:42;;;;;;;6.95;2.47;;;;;;;15.37;68.61;100615.00;5590912;31;34024;-66
2022/05/16 00:20:46;;;;;;;8.93;2.65;;;;;;;15.30;68.53;100614.91;5591245;31;33970;-66
2022/05/16 00:23:49;;;;;;;5.60;2.65;;;;;;;15.23;69.04;100614.88;5590865;31;34063;-67
2022/05/16 00:26:56;;;;;;;9.70;2.37;;;;;;;15.15;69.56;100617.66;5590699;31;33993;-67
2022/05/16 00:29:59;;;;;;;6.97;2.60;;;;;;;15.07;69.76;100608.97;5590495;31;34045;-66
2022/05/16 00:33:01;;;;;;;4.03;2.20;;;;;;;15.04;70.94;100609.34;5590994;31;33952;-66
2022/05/16 00:36:04;;;;;;;5.43;2.30;;;;;;;15.47;68.44;100619.00;5590528;31;33906;-66
2022/05/16 00:39:07;;;;;;;5.60;2.50;;;;;;;15.32;69.34;100620.09;5589939;31;33298;-66
2022/05/16 00:42:12;;;;;;;8.93;2.60;;;;;;;15.27;69.68;100630.53;5590001;31;32580;-67
2022/05/16 00:45:16;;;;;;;4.32;2.20;;;;;;;15.29;70.16;100639.19;5589756;31;33211;-66
2022/05/16 00:48:20;;;;;;;4.93;2.22;;;;;;;15.21;70.07;100640.97;5590643;31;33907;-66
2022/05/16 00:51:26;;;;;;;4.45;2.70;;;;;;;15.12;71.06;100638.59;5590524;31;35200;-66
2022/05/16 00:54:41;;;;;;;5.32;2.80;;;;;;;15.01;71.46;100649.78;5589588;31;33427;-67
2022/05/16 00:57:49;;;;;;;5.10;2.42;;;;;;;14.87;72.10;100653.34;5590449;31;33923;-67
2022/05/16 01:00:52;;;;;;;5.57;2.50;;;;;;;14.77;72.69;100649.12;5590435;31;33847;-66
2022/05/16 01:07:32;;;;;;;5.50;2.70;;;;;;;14.60;71.97;100652.22;5590400;31;34653;-67
2022/05/16 01:10:35;;;;;;;7.37;2.53;;;;;;;14.53;72.17;100648.62;5590318;31;34367;-67
2022/05/16 01:13:38;;;;;;;6.55;2.37;;;;;;;14.46;73.15;100653.06;5589721;31;32546;-67
2022/05/16 01:16:41;;;;;;;8.57;2.22;;;;;;;14.37;72.32;100654.19;5589887;31;35408;-67
2022/05/16 01:19:44;;;;;;;4.53;2.55;;;;;;;14.41;72.29;100658.97;5590295;31;33965;-67
2022/05/16 01:22:52;;;;;;;8.00;2.85;;;;;;;14.44;72.30;100652.41;5590253;31;34261;-67
2022/05/16 01:25:55;;;;;;;8.43;3.03;;;;;;;14.49;73.59;100655.38;5589569;31;33276;-66
2022/05/16 01:28:58;;;;;;;4.78;2.37;;;;;;;14.47;74.34;100649.41;5589416;31;32454;-66
2022/05/16 01:32:01;;;;;;;7.18;2.75;;;;;;;14.69;75.90;100645.75;5589508;31;32433;-66
2022/05/16 01:35:04;;;;;;;4.65;2.70;;;;;;;14.70;76.65;100640.25;5590045;31;34724;-67
2022/05/16 01:38:19;;;;;;;4.28;2.10;;;;;;;14.54;77.44;100644.94;5590093;31;33862;-65
2022/05/16 01:41:25;;;;;;;7.62;2.40;;;;;;;14.42;78.41;100641.13;5590091;31;33902;-66
2022/05/16 01:44:28;;;;;;;6.00;3.00;;;;;;;14.44;78.31;100639.91;5589998;31;34633;-66
2022/05/16 01:47:33;;;;;;;5.93;2.50;;;;;;;14.53;77.25;100644.13;5589877;31;34620;-66
2022/05/16 01:50:35;;;;;;;7.45;2.47;;;;;;;14.65;73.43;100637.31;5590111;31;33967;-65
2022/05/16 01:53:40;;;;;;;7.60;2.87;;;;;;;14.64;73.00;100646.31;5589168;31;34586;-66
2022/05/16 01:56:44;;;;;;;5.35;2.40;;;;;;;14.42;73.82;100651.81;5590303;31;34244;-66
2022/05/16 01:59:46;;;;;;;5.90;2.60;;;;;;;14.49;73.71;100644.69;5588971;31;33245;-67
2022/05/16 02:02:49;;;;;;;4.28;2.50;;;;;;;14.33;73.88;100656.34;5589906;31;34607;-67
2022/05/16 02:05:52;;;;;;;6.50;2.47;;;;;;;14.18;74.92;100650.22;5589834;31;34091;-67
2022/05/16 02:08:55;;;;;;;3.62;2.37;;;;;;;14.05;75.09;100647.34;5589838;31;34593;-67
2022/05/16 02:11:58;;;;;;;5.55;2.50;;;;;;;13.99;75.14;100656.91;5590190;31;34318;-67
2022/05/16 02:15:06;;;;;;;5.95;2.80;;;;;;;13.90;75.62;100653.50;5589779;31;33944;-66
2022/05/16 02:18:11;;;;;;;7.30;2.70;;;;;;;14.11;75.43;100652.78;5589640;31;34556;-67
2022/05/16 02:24:42;;;;;;;4.50;2.60;;;;;;;14.01;74.74;100656.72;5589776;31;34421;-66
2022/05/16 02:27:46;;;;;;;3.60;2.60;;;;;;;13.89;75.47;100649.16;5589107;31;33879;-67
2022/05/16 02:30:49;;;;;;;4.45;2.37;;;;;;;14.10;74.33;100661.78;5589614;31;34031;-66
2022/05/16 02:33:52;;;;;;;5.30;2.65;;;;;;;14.12;73.56;100665.13;5589964;31;34002;-67
2022/05/16 02:36:54;;;;;;;10.77;2.92;;;;;;;14.13;73.38;100673.97;5589480;31;34058;-67
2022/05/16 02:39:57;;;;;;;6.28;2.75;;;;;;;14.05;74.22;100674.84;5589528;31;33959;-66
2022/05/16 02:43:00;;;;;;;6.00;2.95;;;;;;;14.19;72.78;100668.69;5589533;31;34010;-67
2022/05/16 02:46:03;;;;;;;7.85;2.83;;;;;;;14.22;73.12;100667.50;5589827;31;34699;-66
2022/05/16 02:49:06;;;;;;;6.07;2.87;;;;;;;14.29;72.78;100665.75;5589296;31;34124;-67
2022/05/16 02:52:10;;;;;;;5.05;3.00;;;;;;;14.27;72.67;100670.47;5589762;31;33915;-67
2022/05/16 02:55:20;;;;;;;5.75;2.95;;;;;;;14.13;73.29;100664.13;5589720;31;34545;-67
2022/05/16 02:58:23;;;;;;;6.97;2.37;;;;;;;14.13;74.30;100672.13;5588643;31;34357;-67
2022/05/16 03:01:26;;;;;;;6.70;3.00;;;;;;;14.23;73.96;100667.31;5589278;31;34015;-67
2022/05/16 03:04:29;;;;;;;5.68;2.90;;;;;;;14.35;73.30;100660.50;5575722;31;32549;-67
2022/05/16 03:07:32;;;;;;;6.82;2.67;;;;;;;14.27;73.68;100655.28;5589130;31;34071;-67
2022/05/16 03:10:35;;;;;;;7.30;2.65;;;;;;;14.22;73.67;100655.00;5589152;31;34357;-67
2022/05/16 03:13:38;;;;;;;6.75;2.90;;;;;;;14.21;74.03;100664.00;5588381;31;33174;-67
2022/05/16 03:16:40;;;;;;;3.78;2.35;;;;;;;14.22;74.47;100668.34;5588305;31;32767;-67
2022/05/16 03:19:43;;;;;;;5.80;2.55;;;;;;;14.11;75.38;100666.12;5588063;31;33524;-66
2022/05/16 03:22:46;;;;;;;4.40;2.70;;;;;;;14.12;77.33;100670.47;5588961;31;34701;-67
2022/05/16 03:25:49;;;;;;;4.93;2.92;;;;;;;14.31;78.05;100672.56;5589019;31;33963;-66
2022/05/16 03:28:52;;;;;;;8.07;2.58;;;;;;;14.24;78.12;100662.81;5588017;31;32451;-66
2022/05/16 03:31:55;;;;;;;4.37;2.67;;;;;;;14.41;74.65;100663.47;5587879;31;33111;-66
2022/05/16 03:34:58;;;;;;;6.22;2.40;;;;;;;14.29;75.95;100663.06;5588737;31;34070;-66
2022/05/16 03:38:01;;;;;;;8.15;2.65;;;;;;;14.40;72.55;100662.66;5587960;31;34088;-66
2022/05/16 03:41:04;;;;;;;7.75;2.70;;;;;;;14.43;71.62;100670.28;5590022;31;35193;-66
2022/05/16 03:44:07;;;;;;;4.65;2.40;;;;;;;14.42;71.63;100671.31;5591047;31;34050;-67
2022/05/16 03:47:10;;;;;;;6.20;2.25;;;;;;;14.46;70.75;100669.94;5591011;31;34023;-66
2022/05/16 03:50:14;;;;;;;4.28;2.40;;;;;;;14.55;70.58;100671.47;5589942;31;33257;-66
2022/05/16 03:53:16;;;;;;;5.20;2.60;;;;;;;14.61;70.77;100675.25;5590239;31;33925;-66
2022/05/16 03:56:24;;;;;;;6.20;2.55;;;;;;;14.62;71.09;100669.69;5590330;31;32380;-66
2022/05/16 03:59:27;;;;;;;7.32;2.50;;;;;;;14.53;71.76;100667.31;5590970;31;34749;-66
2022/05/16 04:02:29;;;;;;;3.83;2.22;;;;;;;14.59;72.21;100671.91;5589833;31;32608;-67
2022/05/16 04:05:32;;;;;;;7.25;2.92;;;;;;;14.62;73.05;100677.72;5590920;31;33946;-67
2022/05/16 04:08:35;;;;;;;7.95;2.87;;;;;;;14.56;72.59;100678.47;5590170;31;33315;-67
2022/05/16 04:11:38;;;;;;;4.43;2.45;;;;;;;14.82;72.46;100690.47;5590931;31;33999;-67
2022/05/16 04:14:41;;;;;;;8.43;2.75;;;;;;;14.96;71.61;100686.97;5590848;31;34682;-66
2022/05/16 04:17:45;;;;;;;6.90;2.83;;;;;;;15.12;70.83;100687.53;5590630;31;33966;-66
2022/05/16 04:20:47;;;;;;;10.38;2.92;;;;;;;15.18;68.60;100684.13;5590579;31;34284;-66
2022/05/16 04:23:50;;;;;;;8.20;2.65;;;;;;;15.35;67.96;100692.69;5590716;31;33927;-66
2022/05/16 04:26:53;;;;;;;6.50;2.90;;;;;;;15.18;69.50;100702.00;5589685;31;34683;-66
2022/05/16 04:29:56;;;;;;;5.20;2.65;;;;;;;15.26;70.10;100699.19;5589546;31;34301;-66
2022/05/16 04:32:59;;;;;;;6.30;2.83;;;;;;;15.49;70.37;100696.34;5590923;31;34199;-66
2022/05/16 04:36:02;;;;;;;5.20;2.75;;;;;;;15.53;71.06;100701.16;5589778;31;34382;-66
2022/05/16 04:39:05;;;;;;;6.70;2.90;;;;;;;15.71;70.77;100703.34;5590199;31;34059;-66
2022/05/16 04:45:31;;;;;;;6.53;2.78;;;;;;;15.97;70.33;100700.06;5590666;31;34288;-66
2022/05/16 04:48:34;;;;;;;4.22;2.72;;;;;;;16.00;67.77;100705.00;5590318;31;34672;-66
2022/05/16 04:51:37;;;;;;;4.85;2.62;;;;;;;16.09;66.61;100701.16;5589886;31;34278;-66
2022/05/16 04:54:40;;;;;;;5.35;2.70;;;;;;;16.04;65.95;100708.94;5590506;31;34653;-66
2022/05/16 04:57:43;;;;;;;9.60;2.97;;;;;;;16.32;66.56;100715.09;5589568;31;32604;-66
2022/05/16 05:00:49;;;;;;;6.35;2.40;;;;;;;16.71;64.24;100714.50;5589355;31;33244;-67
2022/05/16 05:03:51;;;;;;;7.75;2.42;;;;;;;17.19;63.71;100709.94;5589604;31;32819;-66
2022/05/16 05:06:54;;;;;;;4.97;2.47;;;;;;;17.37;61.79;100714.72;5590181;31;33604;-66
2022/05/16 05:16:39;;;;;;;8.73;3.37;;;;;;;17.21;57.58;100715.94;5589471;31;32697;-66
2022/05/16 05:19:42;;;;;;;14.07;4.72;;;;;;;17.22;58.94;100712.22;5589093;31;32665;-66
2022/05/16 05:22:47;;;;;;;9.65;3.20;;;;;;;17.40;59.02;100711.63;5589706;31;34242;-66
2022/05/16 05:25:50;;;;;;;5.62;2.40;;;;;;;17.66;57.59;100714.38;5589229;31;32439;-65
2022/05/16 05:28:52;;;;;;;5.22;2.53;;;;;;;17.80;56.66;100699.94;5588661;31;32472;-65
2022/05/16 05:31:55;;;;;;;7.05;2.20;;;;;;;17.80;56.30;100702.63;5588225;31;33441;-65
2022/05/16 05:34:58;;;;;;;3.20;1.87;;;;;;;17.65;54.68;100712.72;5589690;31;34246;-66
2022/05/16 05:38:00;;;;;;;4.22;2.10;;;;;;;17.31;55.62;100712.84;5588649;31;32505;-66
2022/05/16 05:41:08;;;;;;;6.30;2.22;;;;;;;17.51;54.94;100719.09;5588845;31;33129;-65
2022/05/16 05:44:12;;;;;;;10.20;2.00;;;;;;;17.71;54.46;100722.66;5589329;31;33861;-65
2022/05/16 05:47:14;;;;;;;5.55;1.90;;;;;;;18.41;52.08;100718.44;5588468;31;34018;-66
2022/05/16 05:50:17;;;;;;;7.87;2.33;;;;;;;18.96;50.43;100719.72;5589804;31;34700;-65
2022/05/16 05:53:19;;;;;;;4.90;2.25;;;;;;;19.16;49.49;100718.78;5588242;31;32717;-65
2022/05/16 05:56:22;;;;;;;5.57;1.65;;;;;;;19.37;48.07;100723.81;5575486;31;32385;-66
2022/05/16 05:59:25;;;;;;;6.72;2.00;;;;;;;19.34;47.92;100727.78;5575610;31;32574;-65
2022/05/16 06:02:28;;;;;;;4.53;2.10;;;;;;;19.47;47.60;100725.03;5587783;31;34074;-65
2022/05/16 06:05:30;;;;;;;4.72;2.12;;;;;;;19.44;47.86;100725.47;5589158;31;34039;-65
2022/05/16 06:08:33;;;;;;;7.28;2.17;;;;;;;19.54;47.88;100722.31;5588524;31;32423;-65
2022/05/16 06:11:36;;;;;;;6.00;2.12;;;;;;;19.11;48.64;100724.81;5588747;31;32349;-65
2022/05/16 06:14:43;;;;;;;4.20;1.98;;;;;;;19.26;49.51;100730.75;5588235;31;34408;-65
2022/05/16 06:17:46;;;;;;;3.85;2.17;;;;;;;19.40;48.35;100731.47;5589241;31;33966;-65
2022/05/16 06:20:49;;;;;;;5.30;2.20;;;;;;;19.50;49.36;100734.56;5589210;31;33992;-65
2022/05/16 06:23:52;;;;;;;7.62;2.10;;;;;;;19.55;48.10;100732.03;5575121;31;33679;-66
2022/05/16 06:26:55;;;;;;;3.65;1.55;;;;;;;19.68;47.68;100725.72;5588459;31;34638;-65
2022/05/16 06:29:59;;;;;;;3.67;1.80;;;;;;;19.72;46.63;100729.63;5588296;31;32662;-66
2022/05/16 06:33:02;;;;;;;4.03;1.80;;;;;;;19.95;45.36;100717.19;5588021;31;33511;-65
2022/05/16 06:36:05;;;;;;;3.53;1.60;;;;;;;19.77;45.78;100721.72;5588837;31;33949;-65
2022/05/16 06:39:08;;;;;;;5.22;2.03;;;;;;;19.85;45.65;100727.63;5589267;31;35090;-66
2022/05/16 06:42:11;;;;;;;7.55;1.62;;;;;;;19.82;45.92;100717.31;5588361;31;33313;-65
2022/05/16 06:45:15;;;;;;;3.50;1.35;;;;;;;19.89;47.52;100720.78;5588334;31;33260;-66
2022/05/16 06:48:19;;;;;;;5.55;1.45;;;;;;;20.08;44.75;100716.25;5588292;31;33984;-65
2022/05/16 06:51:22;;;;;;;3.92;1.55;;;;;;;20.15;44.02;100721.56;5589148;31;34693;-65
2022/05/16 06:54:25;;;;;;;4.82;1.60;;;;;;;20.44;43.10;100723.59;5588614;31;32866;-65
2022/05/16 06:57:28;;;;;;;6.97;1.45;;;;;;;20.80;43.38;100728.16;5587976;31;34038;-65
2022/05/16 07:00:31;;;;;;;5.28;1.42;;;;;;;20.95;42.61;100723.19;5587918;31;32644;-65
2022/05/16 07:03:33;;;;;;;4.22;1.62;;;;;;;21.02;42.00;100725.78;5575306;31;33084;-65
2022/05/16 07:06:36;;;;;;;2.87;1.15;;;;;;;21.28;39.47;100725.47;5589021;31;33931;-65
2022/05/16 07:09:39;;;;;;;2.62;1.27;;;;;;;21.71;37.75;100722.53;5588187;31;33413;-65
2022/05/16 07:12:42;;;;;;;3.12;1.02;;;;;;;22.26;36.79;100730.38;5588104;31;32321;-65
2022/05/16 07:15:45;;;;;;;3.33;1.20;;;;;;;22.57;36.97;100727.25;5588792;31;33998;-66
2022/05/16 07:18:48;;;;;;;3.40;1.20;;;;;;;23.38;35.82;100728.91;5588887;31;33986;-65
2022/05/16 07:21:50;;;;;;;3.58;1.40;;;;;;;23.94;33.42;100728.00;5588844;31;34625;-66
2022/05/16 07:24:55;;;;;;;2.10;1.08;;;;;;;23.99;32.58;100736.19;5588746;31;34149;-66
2022/05/16 07:27:59;;;;;;;3.83;1.25;;;;;;;24.25;32.60;100726.59;5588212;31;33864;-67
2022/05/16 07:31:04;;;;;;;4.25;1.30;;;;;;;24.45;32.87;100734.19;5587801;31;32525;-67
2022/05/16 07:34:06;;;;;;;35.88;3.08;;;;;;;23.43;33.86;100728.19;5587631;31;32368;-67
2022/05/16 07:37:09;;;;;;;5.70;1.23;;;;;;;22.47;35.68;100730.56;5588497;31;33873;-66
2022/05/16 07:40:13;;;;;;;6.47;1.10;;;;;;;23.91;34.49;100733.09;5587182;31;32510;-66
2022/05/16 07:43:17;;;;;;;5.90;1.37;;;;;;;24.89;32.61;100725.03;5588439;31;34011;-66
2022/05/16 07:46:20;;;;;;;5.40;1.45;;;;;;;25.75;30.97;100733.28;5587440;31;32984;-67
2022/05/16 07:49:23;;;;;;;5.18;1.02;;;;;;;26.35;29.53;100720.12;5588241;31;33896;-67
2022/05/16 07:52:28;;;;;;;5.95;1.00;;;;;;;27.04;27.83;100724.53;5587161;31;33322;-67
2022/05/16 07:55:31;;;;;;;3.40;1.08;;;;;;;27.43;26.87;100727.59;5587254;31;34788;-67
2022/05/16 07:58:34;;;;;;;2.37;1.17;;;;;;;27.49;28.13;100721.94;5587952;31;34201;-68
2022/05/16 08:01:37;;;;;;;2.83;1.17;;;;;;;27.74;27.44;100723.81;5587441;31;33164;-67
2022/05/16 08:04:40;;;;;;;4.55;1.00;;;;;;;27.63;26.90;100730.38;5587114;31;33160;-66
2022/05/16 08:11:06;;;;;;;5.35;1.12;;;;;;;27.29;27.56;100731.94;5586749;31;33593;-66
2022/05/16 08:14:08;;;;;;;15.63;1.50;;;;;;;26.87;29.58;100726.66;5587376;31;34142;-65
2022/05/16 08:17:11;;;;;;;5.60;1.23;;;;;;;27.13;27.79;100733.81;5587468;31;34812;-66
2022/05/16 08:20:14;;;;;;;6.10;1.15;;;;;;;27.07;28.09;100732.16;5587111;31;34114;-65
2022/05/16 08:23:21;;;;;;;3.90;1.00;;;;;;;26.55;29.86;100722.13;5586885;31;33542;-67
2022/05/16 08:26:24;;;;;;;4.35;1.37;;;;;;;27.73;27.30;100732.31;5586905;31;32603;-66
2022/05/16 08:29:27;;;;;;;3.78;1.10;;;;;;;28.27;26.20;100725.16;5589060;31;33582;-67
2022/05/16 08:32:30;;;;;;;2.22;1.00;;;;;;;28.89;26.16;100726.62;5576366;31;32358;-66
2022/05/16 08:35:33;;;;;;;7.47;1.50;;;;;;;29.34;24.82;100725.56;5589837;31;34829;-67
2022/05/16 08:42:04;;;;;;;3.87;1.17;;;;;;;26.86;27.09;100719.53;5588994;31;32444;-65
2022/05/16 08:45:16;;;;;;;10.85;1.73;;;;;;;27.85;28.40;100725.47;5589505;31;33317;-65
2022/05/16 08:48:28;;;;;;;2.33;0.90;;;;;;;27.93;26.89;100732.31;5589980;31;33890;-66
2022/05/16 08:51:32;;;;;;;4.37;1.10;;;;;;;28.28;26.66;100725.97;5589081;31;33330;-66
2022/05/16 08:54:42;;;;;;;6.20;1.30;;;;;;;28.65;25.13;100726.44;5589259;31;32515;-65
2022/05/16 08:57:49;;;;;;;3.75;1.20;;;;;;;30.18;23.80;100718.87;5590096;31;34259;-65
2022/05/16 09:00:59;;;;;;;1.65;1.10;;;;;;;30.94;21.49;100717.97;5589251;31;33992;-65
2022/05/16 09:04:07;;;;;;;6.28;1.40;;;;;;;30.87;22.47;100720.28;5589257;31;33447;-66
2022/05/16 09:07:45;;;;;;;4.75;1.33;;;;;;;29.23;24.34;100713.88;5588466;31;32365;-65
2022/05/16 09:11:14;;;;;;;4.82;1.12;;;;;;;29.04;23.91;100720.28;5578445;31;33904;-66
2022/05/16 09:14:35;;;;;;;3.12;1.12;;;;;;;29.74;24.25;100724.44;5588650;31;32884;-66
2022/05/16 09:17:54;;;;;;;2.87;0.95;;;;;;;30.79;23.66;100716.25;5589848;31;34444;-66
2022/05/16 09:21:06;;;;;;;6.12;1.25;;;;;;;32.87;21.16;100716.34;5589022;31;32615;-65
2022/05/16 09:24:14;;;;;;;2.33;1.20;;;;;;;33.29;20.33;100715.13;5589704;31;34042;-65
2022/05/16 09:30:48;;;;;;;3.83;1.20;;;;;;;34.42;18.73;100715.53;5588546;31;34154;-65
2022/05/16 09:33:57;;;;;;;4.68;1.33;;;;;;;33.08;19.91;100709.25;5589190;31;33124;-66
2022/05/16 09:37:00;;;;;;;2.45;0.93;;;;;;;32.14;21.44;100702.72;5589642;31;32849;-66
2022/05/16 09:40:04;;;;;;;2.50;1.30;;;;;;;33.35;20.51;100699.34;5588853;31;33941;-66
2022/05/16 09:43:15;;;;;;;63.72;4.43;;;;;;;32.61;21.05;100688.56;5589699;31;34710;-67
2022/05/16 09:46:31;;;;;;;3.97;1.10;;;;;;;33.85;20.12;100687.06;5588541;31;33072;-66
2022/05/16 09:49:34;;;;;;;3.33;1.40;;;;;;;34.52;19.68;100684.13;5589775;31;32579;-67
2022/05/16 09:52:48;;;;;;;5.43;1.30;;;;;;;34.00;19.18;100686.66;5590017;31;34341;-67
2022/05/16 09:55:55;;;;;;;3.75;1.40;;;;;;;35.04;19.65;100668.53;5588818;31;32485;-66
2022/05/16 09:59:04;;;;;;;8.00;1.37;;;;;;;35.39;19.12;100663.81;5589377;31;35244;-67
2022/05/16 10:02:12;;;;;;;5.93;1.20;;;;;;;35.81;18.35;100675.94;5589363;31;34270;-66
2022/05/16 10:05:31;;;;;;;1.92;1.08;;;;;;;36.64;17.55;100675.47;5589740;31;34260;-66
2022/05/16 10:08:37;;;;;;;2.20;1.10;;;;;;;37.39;16.86;100666.88;5590041;31;34140;-66
2022/05/16 10:11:47;;;;;;;4.00;1.20;;;;;;;36.29;17.33;100667.34;5589211;31;33984;-66
2022/05/16 10:14:50;;;;;;;3.20;1.20;;;;;;;35.67;19.10;100658.78;5588887;31;33273;-67
2022/05/16 10:17:56;;;;;;;2.55;1.20;;;;;;;36.40;17.83;100668.59;5588525;31;33360;-66
2022/05/16 10:21:04;;;;;;;2.97;1.50;;;;;;;35.66;18.17;100651.63;5575496;31;34079;-65
2022/05/16 10:24:11;;;;;;;4.70;1.40;;;;;;;33.58;20.08;100652.25;5588351;31;33017;-65
2022/05/16 10:27:18;;;;;;;5.43;1.70;;;;;;;34.00;20.15;100641.78;5585038;31;109753;-66
2022/05/16 10:30:25;;;;;;;3.53;1.15;;;;;;;36.28;17.66;100648.31;5588296;31;33364;-67
2022/05/16 10:33:32;;;;;;;7.10;1.30;;;;;;;36.51;17.60;100644.09;5587921;31;34607;-66
2022/05/16 10:36:36;;;;;;;3.70;1.27;;;;;;;36.74;17.01;100645.47;5588396;31;32655;-65
2022/05/16 10:39:46;;;;;;;2.80;1.08;;;;;;;35.15;18.69;100635.88;5588390;31;32429;-66
2022/05/16 10:43:12;;;;;;;4.72;1.20;;;;;;;33.45;20.42;100641.31;5589136;31;33959;-67
2022/05/16 10:46:19;;;;;;;3.72;1.40;;;;;;;33.67;19.60;100644.06;5589264;31;33967;-66
2022/05/16 10:49:37;;;;;;;4.22;1.40;;;;;;;32.23;21.46;100641.28;5587993;31;34645;-66
2022/05/16 10:52:51;;;;;;;5.72;1.48;;;;;;;31.61;22.31;100634.50;5588505;31;33939;-66
2022/05/16 10:56:06;;;;;;;3.97;1.37;;;;;;;30.91;24.01;100633.63;5588018;31;32708;-66
2022/05/16 10:59:19;;;;;;;3.42;1.37;;;;;;;30.40;22.90;100642.53;5588823;31;34652;-66
2022/05/16 11:02:36;;;;;;;4.78;1.23;;;;;;;30.20;23.09;100631.81;5588070;31;33345;-66
2022/05/16 11:06:19;;;;;;;5.32;1.20;;;;;;;28.85;25.11;100632.72;5588538;31;34837;-65
2022/05/16 11:09:41;;;;;;;4.87;1.67;;;;;;;27.94;25.99;100624.81;5589137;31;34013;-65
2022/05/16 11:13:10;;;;;;;6.55;1.62;;;;;;;31.49;22.20;100625.88;5588776;31;34015;-65
2022/05/16 11:16:32;;;;;;;3.65;1.27;;;;;;;33.76;19.89;100630.34;5587887;31;33293;-66
2022/05/16 11:20:01;;;;;;;4.53;1.40;;;;;;;36.16;17.64;100613.91;5588703;31;34382;-66
2022/05/16 11:23:14;;;;;;;2.05;1.30;;;;;;;36.03;17.21;100608.59;5575162;31;32589;-67
2022/05/16 11:26:20;;;;;;;1.20;1.05;;;;;;;33.82;19.49;100610.63;5587510;31;32302;-66
2022/05/16 11:29:46;;;;;;;4.12;1.50;;;;;;;36.13;17.66;100606.31;5587657;31;32496;-67
2022/05/16 11:33:15;;;;;;;5.50;1.27;;;;;;;39.30;15.04;100604.94;5574688;31;32586;-66
2022/05/16 11:36:45;;;;;;;4.18;1.37;;;;;;;37.64;16.12;100595.00;5587821;31;33141;-66
2022/05/16 11:40:06;;;;;;;3.62;1.33;;;;;;;39.08;15.67;100593.25;5588432;31;34546;-67
2022/05/16 11:43:24;;;;;;;3.20;1.25;;;;;;;38.70;15.15;100599.25;5588663;31;34259;-66
2022/05/16 11:46:45;;;;;;;4.93;1.50;;;;;;;36.97;16.79;100587.84;5587234;31;32694;-66
2022/05/16 11:50:41;;;;;;;9.48;2.08;;;;;;;39.13;15.04;100590.22;5586804;31;32555;-66
2022/05/16 11:53:51;;;;;;;5.37;1.50;;;;;;;41.25;13.50;100584.56;5587737;31;33925;-66
2022/05/16 12:03:48;;;;;;;5.07;1.50;;;;;;;38.68;15.86;100570.28;5589615;31;33333;-66
2022/05/16 12:06:59;;;;;;;6.40;1.35;;;;;;;40.69;14.18;100571.91;5589479;31;32750;-66
2022/05/16 12:10:24;;;;;;;2.92;1.65;;;;;;;41.13;14.39;100566.84;5590542;31;33365;-67
2022/05/16 12:13:33;;;;;;;3.78;1.20;;;;;;;41.39;13.96;100563.34;5589579;31;32674;-67
2022/05/16 12:16:54;;;;;;;3.85;1.30;;;;;;;43.45;12.25;100558.66;5590048;31;34358;-67
2022/05/16 12:19:57;;;;;;;2.00;1.20;;;;;;;42.14;12.71;100557.03;5589616;31;32315;-66
2022/05/16 12:23:01;;;;;;;2.37;1.37;;;;;;;40.92;14.04;100552.47;5589389;31;33942;-66
2022/05/16 12:26:11;;;;;;;4.32;1.35;;;;;;;39.90;14.35;100551.78;5590383;31;34369;-66
2022/05/16 12:29:20;;;;;;;6.20;1.50;;;;;;;41.97;13.02;100552.81;5589626;31;35306;-66
2022/05/16 12:33:09;;;;;;;5.97;1.48;;;;;;;42.85;12.45;100542.06;5590632;31;34663;-66
2022/05/16 12:36:14;;;;;;;6.15;1.75;;;;;;;40.52;14.32;100532.56;5554774;31;34057;-66
2022/05/16 12:39:32;;;;;;;5.28;1.45;;;;;;;42.43;12.97;100533.16;5590066;31;34630;-67
2022/05/16 12:43:00;;;;;;;2.37;1.15;;;;;;;40.08;14.56;100527.22;5589400;31;34014;-66
2022/05/16 12:46:41;;;;;;;3.58;1.45;;;;;;;39.38;15.07;100513.19;5590212;31;34524;-66
2022/05/16 12:49:57;;;;;;;2.43;1.37;;;;;;;39.85;14.67;100504.03;5590176;31;34546;-67
2022/05/16 12:53:39;;;;;;;2.37;1.40;;;;;;;39.03;15.70;100503.91;5576299;31;32750;-67
2022/05/16 12:56:56;;;;;;;3.72;1.58;;;;;;;38.93;16.33;100496.09;5576631;31;32457;-67
2022/05/16 13:00:12;;;;;;;4.80;1.65;;;;;;;39.09;15.22;100483.06;5589788;31;34726;-66
2022/05/16 13:03:41;;;;;;;2.42;1.48;;;;;;;39.37;15.37;100483.00;5589293;31;33343;-66
2022/05/16 13:07:08;;;;;;;4.75;2.30;;;;;;;40.72;14.42;100478.53;5589904;31;33881;-67
2022/05/16 13:10:30;;;;;;;2.70;1.37;;;;;;;36.98;17.46;100463.06;5589772;31;34507;-67
2022/05/16 13:14:10;;;;;;;3.25;1.50;;;;;;;41.36;14.55;100474.16;5589885;31;34152;-69
2022/05/16 13:17:37;;;;;;;3.45;1.65;;;;;;;40.95;14.08;100465.47;5576321;31;33332;-66
2022/05/16 13:20:44;;;;;;;2.97;1.30;;;;;;;40.25;15.33;100460.09;5589375;31;34162;-67
2022/05/16 13:23:49;;;;;;;5.78;1.77;;;;;;;39.34;15.91;100450.41;5589525;31;34052;-67
2022/05/16 13:30:38;;;;;;;3.83;1.50;;;;;;;41.08;14.54;100460.56;5587986;31;33836;-66
2022/05/16 13:33:41;;;;;;;2.87;1.40;;;;;;;38.40;16.12;100451.00;5588160;31;33304;-66
2022/05/16 13:36:46;;;;;;;2.25;1.58;;;;;;;39.49;15.89;100453.19;5589182;31;33922;-67
2022/05/16 13:39:55;;;;;;;5.70;1.70;;;;;;;40.76;14.48;100452.44;5589546;31;34966;-67
2022/05/16 13:42:58;;;;;;;5.72;1.70;;;;;;;41.47;14.67;100444.53;5588905;31;32722;-66
2022/05/16 13:46:09;;;;;;;9.63;1.62;;;;;;;42.60;13.42;100451.66;5588899;31;34609;-67
2022/05/16 13:49:14;;;;;;;12.98;1.90;;;;;;;38.66;16.73;100440.28;5575779;31;33034;-67
2022/05/16 13:52:17;;;;;;;3.83;1.80;;;;;;;40.16;16.06;100436.44;5588150;31;35485;-66
2022/05/16 13:55:21;;;;;;;5.10;1.60;;;;;;;41.69;14.39;100437.28;5588231;31;32529;-66
2022/05/16 13:58:26;;;;;;;5.00;1.70;;;;;;;42.12;13.74;100442.28;5588501;31;33412;-66
2022/05/16 14:01:29;;;;;;;3.75;1.73;;;;;;;41.71;13.95;100434.94;5588887;31;35224;-66
2022/05/16 14:04:46;;;;;;;4.25;1.73;;;;;;;42.05;13.39;100437.44;5587479;31;34063;-66
2022/05/16 14:07:50;;;;;;;3.40;1.67;;;;;;;42.00;13.70;100434.97;5589395;31;35207;-67
2022/05/16 14:10:55;;;;;;;5.10;1.70;;;;;;;42.48;13.09;100441.56;5588772;31;34178;-66
2022/05/16 14:13:58;;;;;;;16.42;2.25;;;;;;;41.88;13.96;100426.84;5588773;31;34043;-67
2022/05/16 14:17:02;;;;;;;10.25;1.80;;;;;;;40.68;15.16;100419.25;5588065;31;34266;-66
2022/05/16 14:20:12;;;;;;;3.95;1.90;;;;;;;38.81;16.70;100410.97;5588491;31;34206;-66
2022/05/16 14:23:21;;;;;;;3.17;1.50;;;;;;;35.34;19.64;100406.63;5587659;31;34865;-66
2022/05/16 14:26:27;;;;;;;2.62;1.52;;;;;;;31.17;24.27;100410.19;5588667;31;34583;-66
2022/05/16 14:29:34;;;;;;;5.62;2.17;;;;;;;29.45;26.79;100404.56;5588777;31;33978;-65
2022/05/16 14:32:43;;;;;;;3.12;1.42;;;;;;;30.09;26.17;100400.47;5589029;31;33945;-65
2022/05/16 14:36:03;;;;;;;6.47;2.20;;;;;;;29.73;27.17;100398.19;5587313;31;32543;-65
2022/05/16 14:39:21;;;;;;;10.32;2.20;;;;;;;29.87;27.88;100394.75;5588377;31;33955;-67
2022/05/16 14:42:24;;;;;;;4.40;1.90;;;;;;;30.60;26.46;100386.78;5587615;31;32745;-66
2022/05/16 14:48:49;;;;;;;4.80;2.00;;;;;;;32.62;24.64;100393.50;5588575;31;34360;-66
2022/05/16 14:51:51;;;;;;;3.95;1.75;;;;;;;31.56;25.13;100386.91;5587160;31;32438;-66
2022/05/16 14:55:00;;;;;;;11.18;2.20;;;;;;;30.72;27.44;100389.06;5587765;31;34970;-66
2022/05/16 14:58:05;;;;;;;9.38;1.95;;;;;;;30.13;28.59;100383.16;5588295;31;33991;-66
2022/05/16 15:04:35;;;;;;;5.07;1.70;;;;;;;31.48;24.55;100380.19;5587967;31;33960;-66
2022/05/16 15:07:41;;;;;;;3.97;2.12;;;;;;;30.69;26.23;100378.72;5574246;31;34147;-67
2022/05/16 15:10:44;;;;;;;5.00;1.80;;;;;;;29.43;29.84;100375.94;5588426;31;34207;-66
2022/05/16 15:13:48;;;;;;;2.87;1.83;;;;;;;29.18;30.43;100372.34;5588066;31;35518;-66
2022/05/16 15:16:51;;;;;;;3.58;1.70;;;;;;;29.11;28.41;100371.06;5587086;31;34065;-66